createdAt,value
2023-05-12T00:00:57.205Z,12.21
2023-05-12T00:03:25.887Z,12.16
2023-05-12T00:05:53.973Z,12.25
2023-05-12T00:08:21.384Z,12.24
2023-05-12T00:10:49.201Z,12.25
2023-05-12T00:13:17.117Z,12.23
2023-05-12T00:15:44.972Z,12.26
2023-05-12T00:18:12.734Z,12.31
2023-05-12T00:20:40.653Z,12.26
2023-05-12T00:23:08.276Z,12.24
2023-05-12T00:25:35.866Z,12.16
2023-05-12T00:28:03.152Z,12.25
2023-05-12T00:30:30.780Z,12.22
2023-05-12T00:32:58.913Z,12.22
2023-05-12T00:35:26.616Z,12.26
2023-05-12T00:37:54.052Z,12.22
2023-05-12T00:40:22.090Z,12.26
2023-05-12T00:42:50.013Z,12.21
2023-05-12T00:45:17.902Z,12.23
2023-05-12T00:47:46.647Z,12.20
2023-05-12T00:50:15.391Z,12.18
2023-05-12T00:52:42.928Z,12.17
2023-05-12T00:55:10.783Z,12.10
2023-05-12T00:57:38.271Z,12.00
2023-05-12T01:00:09.223Z,12.01
2023-05-12T01:02:58.755Z,12.02
2023-05-12T01:05:54.611Z,12.05
2023-05-12T01:08:23.576Z,12.08
2023-05-12T01:10:52.354Z,12.07
2023-05-12T01:13:20.164Z,12.09
2023-05-12T01:15:50.710Z,12.10
2023-05-12T01:18:20.562Z,12.09
2023-05-12T01:20:50.961Z,12.15
2023-05-12T01:23:21.749Z,12.12
2023-05-12T01:25:50.477Z,12.16
2023-05-12T01:28:18.947Z,12.19
2023-05-12T01:30:48.208Z,12.16
2023-05-12T01:33:15.655Z,12.18
2023-05-12T01:35:43.387Z,12.20
2023-05-12T01:38:10.947Z,12.26
2023-05-12T01:40:41.661Z,12.22
2023-05-12T01:43:09.488Z,12.24
2023-05-12T01:45:37.687Z,12.23
2023-05-12T01:48:05.482Z,12.26
2023-05-12T01:50:33.147Z,12.26
2023-05-12T01:53:01.873Z,12.18
2023-05-12T01:55:31.375Z,12.26
2023-05-12T01:57:58.624Z,12.26
2023-05-12T02:00:27.819Z,12.19
2023-05-12T02:02:57.934Z,12.24
2023-05-12T02:05:26.034Z,12.23
2023-05-12T02:07:53.768Z,12.21
2023-05-12T02:10:22.363Z,12.26
2023-05-12T02:12:49.942Z,12.26
2023-05-12T02:15:17.752Z,12.25
2023-05-12T02:17:46.914Z,12.16
2023-05-12T02:20:16.777Z,12.25
2023-05-12T02:22:44.279Z,12.24
2023-05-12T02:25:11.859Z,12.20
2023-05-12T02:27:39.312Z,12.22
2023-05-12T02:30:08.211Z,12.16
2023-05-12T02:32:36.339Z,12.19
2023-05-12T02:35:07.333Z,12.22
2023-05-12T02:37:36.395Z,12.22
2023-05-12T02:40:09.195Z,12.21
2023-05-12T02:42:38.565Z,12.14
2023-05-12T02:45:07.145Z,12.20
2023-05-12T02:47:34.498Z,12.25
2023-05-12T02:50:04.077Z,12.18
2023-05-12T02:52:32.341Z,12.22
2023-05-12T02:54:59.964Z,12.25
2023-05-12T02:57:33.059Z,12.23
2023-05-12T03:00:02.071Z,12.24
2023-05-12T03:02:36.336Z,12.08
2023-05-12T03:05:04.975Z,12.28
2023-05-12T03:07:32.543Z,12.23
2023-05-12T03:10:01.752Z,12.29
2023-05-12T03:12:29.861Z,12.21
2023-05-12T03:14:58.380Z,12.22
2023-05-12T03:17:27.148Z,12.22
2023-05-12T03:19:54.859Z,12.23
2023-05-12T03:22:22.354Z,12.27
2023-05-12T03:24:50.063Z,12.27
2023-05-12T03:27:17.456Z,12.20
2023-05-12T03:29:45.070Z,12.22
2023-05-12T03:32:13.260Z,12.25
2023-05-12T03:34:40.937Z,12.21
2023-05-12T03:37:08.984Z,12.20
2023-05-12T03:39:36.546Z,12.17
2023-05-12T03:42:04.016Z,12.19
2023-05-12T03:44:31.681Z,12.22
2023-05-12T03:46:59.131Z,12.19
2023-05-12T03:49:27.358Z,12.16
2023-05-12T03:51:54.979Z,12.18
2023-05-12T03:54:22.648Z,12.19
2023-05-12T03:56:50.718Z,12.25
2023-05-12T03:59:18.421Z,12.21
2023-05-12T04:01:46.068Z,12.15
2023-05-12T04:04:13.997Z,12.15
2023-05-12T04:06:41.325Z,12.15
2023-05-12T04:09:09.056Z,12.13
2023-05-12T04:11:37.242Z,12.10
2023-05-12T04:14:04.860Z,12.16
2023-05-12T04:16:32.267Z,12.11
2023-05-12T04:18:59.971Z,12.07
2023-05-12T04:21:27.702Z,12.08
2023-05-12T04:23:55.874Z,12.02
2023-05-12T04:26:27.191Z,12.09
2023-05-12T04:28:55.467Z,12.16
2023-05-12T04:31:23.311Z,12.17
2023-05-12T04:33:52.068Z,12.18
2023-05-12T04:36:19.411Z,12.17
2023-05-12T04:38:49.753Z,12.18
2023-05-12T04:41:17.248Z,12.09
2023-05-12T04:46:16.198Z,12.10
2023-05-12T04:48:44.651Z,12.10
2023-05-12T04:51:11.976Z,12.06
2023-05-12T04:53:39.700Z,12.00
2023-05-12T04:56:07.365Z,12.01
2023-05-12T04:58:38.579Z,11.92
2023-05-12T05:01:07.103Z,11.92
2023-05-12T05:03:35.669Z,11.89
2023-05-12T05:06:03.073Z,11.91
2023-05-12T05:08:30.698Z,11.92
2023-05-12T05:10:58.087Z,11.88
2023-05-12T05:13:27.251Z,11.83
2023-05-12T05:15:55.336Z,11.79
2023-05-12T05:18:24.793Z,11.84
2023-05-12T05:23:24.118Z,11.84
2023-05-12T05:25:51.684Z,11.85
2023-05-12T05:28:19.356Z,11.76
2023-05-12T05:30:47.325Z,11.77
2023-05-12T05:33:15.656Z,11.76
2023-05-12T05:35:43.204Z,11.83
2023-05-12T05:38:13.176Z,11.92
2023-05-12T05:40:52.069Z,11.89
2023-05-12T05:43:21.419Z,11.83
2023-05-12T05:45:51.912Z,11.84
2023-05-12T05:48:22.482Z,11.87
2023-05-12T05:50:51.770Z,11.93
2023-05-12T05:53:21.114Z,11.87
2023-05-12T05:55:51.409Z,11.78
2023-05-12T05:58:19.002Z,11.79
2023-05-12T06:00:47.447Z,11.65
2023-05-12T06:03:15.250Z,11.88
2023-05-12T06:05:44.682Z,11.79
2023-05-12T06:08:13.693Z,11.71
2023-05-12T06:10:41.463Z,11.66
2023-05-12T06:13:09.175Z,11.73
2023-05-12T06:15:36.718Z,11.73
2023-05-12T06:18:04.597Z,11.77
2023-05-12T06:20:35.145Z,11.91
2023-05-12T06:23:02.992Z,11.91
2023-05-12T06:25:30.303Z,11.97
2023-05-12T06:27:57.847Z,12.00
2023-05-12T06:30:25.201Z,12.11
2023-05-12T06:32:56.162Z,12.18
2023-05-12T06:35:23.640Z,12.15
2023-05-12T06:37:51.549Z,12.23
2023-05-12T06:40:19.313Z,12.17
2023-05-12T06:42:48.242Z,12.22
2023-05-12T06:45:20.437Z,12.14
2023-05-12T06:47:48.532Z,12.19
2023-05-12T06:50:17.222Z,12.20
2023-05-12T06:52:45.222Z,12.03
2023-05-12T06:55:12.666Z,12.02
2023-05-12T06:57:40.306Z,11.80
2023-05-12T07:00:10.901Z,11.61
2023-05-12T07:02:38.954Z,11.51
2023-05-12T07:05:06.573Z,11.41
2023-05-12T07:07:35.952Z,11.35
2023-05-12T07:10:03.596Z,11.20
2023-05-12T07:12:32.410Z,11.11
2023-05-12T07:14:59.951Z,11.06
2023-05-12T07:17:29.024Z,11.04
2023-05-12T07:19:56.459Z,11.12
2023-05-12T07:22:24.158Z,11.05
2023-05-12T07:24:51.564Z,11.07
2023-05-12T07:27:19.421Z,11.17
2023-05-12T07:29:47.155Z,11.07
2023-05-12T07:32:14.711Z,11.16
2023-05-12T07:34:42.295Z,11.12
2023-05-12T07:37:09.957Z,11.05
2023-05-12T07:39:37.357Z,10.97
2023-05-12T07:42:07.382Z,10.73
2023-05-12T07:44:35.119Z,10.89
2023-05-12T07:47:02.712Z,10.83
2023-05-12T07:49:30.058Z,10.87
2023-05-12T07:51:57.717Z,10.87
2023-05-12T07:54:25.128Z,10.81
2023-05-12T07:56:52.789Z,10.73
2023-05-12T07:59:20.117Z,10.67
2023-05-12T08:01:49.985Z,10.87
2023-05-12T08:04:17.569Z,11.02
2023-05-12T08:06:45.364Z,10.99
2023-05-12T08:09:12.817Z,10.93
2023-05-12T08:11:40.530Z,10.92
2023-05-12T08:14:07.827Z,11.03
2023-05-12T08:16:35.463Z,10.98
2023-05-12T08:19:02.867Z,11.03
2023-05-12T08:21:32.893Z,11.01
2023-05-12T08:24:00.485Z,11.05
2023-05-12T08:26:28.644Z,11.04
2023-05-12T08:28:56.669Z,11.11
2023-05-12T08:31:24.552Z,11.01
2023-05-12T08:34:02.716Z,10.95
2023-05-12T08:36:37.656Z,11.07
2023-05-12T08:39:05.208Z,11.03
2023-05-12T08:41:45.384Z,11.04
2023-05-12T08:44:13.398Z,11.00
2023-05-12T08:46:42.131Z,10.91
2023-05-12T08:49:17.117Z,10.82
2023-05-12T08:51:54.469Z,10.85
2023-05-12T08:54:26.953Z,10.85
2023-05-12T08:59:25.797Z,10.72
2023-05-12T09:01:55.390Z,10.91
2023-05-12T09:04:23.268Z,10.92
2023-05-12T09:06:53.645Z,10.91
2023-05-12T09:09:23.396Z,11.06
2023-05-12T09:11:56.642Z,11.15
2023-05-12T09:14:26.063Z,11.03
2023-05-12T09:17:00.204Z,10.95
2023-05-12T09:19:28.447Z,10.99
2023-05-12T09:21:56.998Z,10.99
2023-05-12T09:24:38.817Z,11.03
2023-05-12T09:27:07.497Z,11.09
2023-05-12T09:29:42.358Z,11.12
2023-05-12T09:32:15.827Z,11.10
2023-05-12T09:34:43.560Z,11.17
2023-05-12T09:37:15.307Z,11.36
2023-05-12T09:39:44.388Z,11.56
2023-05-12T09:42:15.988Z,11.74
2023-05-12T09:44:43.589Z,11.92
2023-05-12T09:47:11.319Z,12.00
2023-05-12T09:49:38.609Z,12.07
2023-05-12T09:52:06.464Z,12.05
2023-05-12T09:54:34.663Z,12.07
2023-05-12T09:57:08.790Z,12.01
2023-05-12T09:59:39.994Z,12.01
2023-05-12T10:02:09.910Z,11.79
2023-05-12T10:04:51.039Z,11.99
2023-05-12T10:07:29.956Z,11.94
2023-05-12T10:10:01.564Z,12.25
2023-05-12T10:12:29.733Z,12.34
2023-05-12T10:15:03.541Z,12.23
2023-05-12T10:17:32.513Z,12.38
2023-05-12T10:20:06.836Z,12.51
2023-05-12T10:22:38.768Z,12.46
2023-05-12T10:25:12.586Z,12.69
2023-05-12T10:27:52.528Z,12.62
2023-05-12T10:30:24.302Z,12.82
2023-05-12T10:32:57.586Z,12.85
2023-05-12T10:35:34.191Z,13.09
2023-05-12T10:38:10.086Z,13.04
2023-05-12T10:41:15.345Z,13.28
2023-05-12T10:43:49.848Z,13.42
2023-05-12T10:46:21.544Z,13.36
2023-05-12T10:49:16.002Z,13.28
2023-05-12T10:51:43.445Z,13.33
2023-05-12T10:54:18.819Z,13.45
2023-05-12T10:56:46.681Z,13.44
2023-05-12T10:59:19.060Z,13.15
2023-05-12T11:02:03.267Z,13.09
2023-05-12T11:04:41.462Z,13.10
2023-05-12T11:07:12.201Z,12.98
2023-05-12T11:09:50.596Z,12.94
2023-05-12T11:12:26.920Z,12.92
2023-05-12T11:14:54.786Z,12.80
2023-05-12T11:17:22.280Z,12.88
2023-05-12T11:19:50.918Z,12.79
2023-05-12T11:22:25.761Z,12.96
2023-05-12T11:24:54.183Z,12.95
2023-05-12T11:27:23.542Z,13.11
2023-05-12T11:30:07.479Z,13.04
2023-05-12T11:32:34.894Z,12.99
2023-05-12T11:35:17.620Z,12.94
2023-05-12T11:37:47.569Z,12.93
2023-05-12T11:40:23.388Z,12.93
2023-05-12T11:42:58.417Z,12.92
2023-05-12T11:45:32.468Z,13.21
2023-05-12T11:48:11.920Z,13.06
2023-05-12T11:50:48.780Z,13.15
2023-05-12T11:53:19.496Z,13.31
2023-05-12T11:55:56.589Z,13.44
2023-05-12T11:58:30.871Z,13.29
2023-05-12T12:01:12.145Z,13.21
2023-05-12T12:03:57.053Z,13.20
2023-05-12T12:06:24.788Z,13.29
2023-05-12T12:09:02.798Z,13.09
2023-05-12T12:11:31.599Z,12.97
2023-05-12T12:13:58.975Z,13.06
2023-05-12T12:16:28.274Z,13.21
2023-05-12T12:18:56.800Z,13.18
2023-05-12T12:21:25.666Z,13.16
2023-05-12T12:23:55.200Z,13.25
2023-05-12T12:26:23.399Z,13.07
2023-05-12T12:28:50.792Z,13.10
2023-05-12T12:31:19.000Z,12.99
2023-05-12T12:33:46.414Z,13.09
2023-05-12T12:36:14.091Z,13.13
2023-05-12T12:38:41.397Z,13.33
2023-05-12T12:41:09.125Z,12.94
2023-05-12T12:43:36.526Z,13.06
2023-05-12T12:46:04.381Z,13.01
2023-05-12T12:48:32.441Z,12.87
2023-05-12T12:51:01.430Z,12.88
2023-05-12T12:53:29.090Z,13.02
2023-05-12T12:55:56.735Z,13.10
2023-05-12T12:58:24.160Z,13.07
2023-05-12T13:00:51.911Z,12.82
2023-05-12T13:03:20.496Z,12.91
2023-05-12T13:05:48.361Z,12.87
2023-05-12T13:08:17.559Z,12.79
2023-05-12T13:10:46.602Z,12.79
2023-05-12T13:13:20.015Z,12.83
2023-05-12T13:15:48.851Z,12.83
2023-05-12T13:18:16.223Z,12.73
2023-05-12T13:20:44.062Z,12.69
2023-05-12T13:23:11.563Z,12.65
2023-05-12T13:25:39.778Z,12.67
2023-05-12T13:28:07.097Z,12.67
2023-05-12T13:30:35.056Z,12.74
2023-05-12T13:33:05.043Z,12.84
2023-05-12T13:35:33.752Z,12.89
2023-05-12T13:38:01.254Z,12.86
2023-05-12T13:40:28.947Z,12.98
2023-05-12T13:42:56.654Z,12.86
2023-05-12T13:45:24.619Z,12.79
2023-05-12T13:47:52.222Z,12.65
2023-05-12T13:50:20.670Z,12.65
2023-05-12T13:52:48.035Z,12.64
2023-05-12T13:55:20.982Z,12.80
2023-05-12T13:57:49.606Z,12.67
2023-05-12T14:00:20.692Z,12.59
2023-05-12T14:02:48.333Z,12.35
2023-05-12T14:05:16.214Z,12.49
2023-05-12T14:07:43.542Z,12.38
2023-05-12T14:10:11.478Z,12.37
2023-05-12T14:12:38.887Z,12.33
2023-05-12T14:15:22.032Z,12.17
2023-05-12T14:17:54.602Z,12.17
2023-05-12T14:20:22.476Z,12.15
2023-05-12T14:22:49.866Z,12.11
2023-05-12T14:25:17.650Z,12.02
2023-05-12T14:27:45.484Z,12.00
2023-05-12T14:30:13.609Z,11.90
2023-05-12T14:32:40.893Z,11.65
2023-05-12T14:35:11.295Z,11.59
2023-05-12T14:37:38.617Z,11.60
2023-05-12T14:40:09.180Z,11.48
2023-05-12T14:42:36.660Z,11.25
2023-05-12T14:45:05.215Z,11.07
2023-05-12T14:47:32.709Z,11.06
2023-05-12T14:50:00.311Z,10.95
2023-05-12T14:52:27.666Z,10.96
2023-05-12T14:54:56.023Z,10.92
2023-05-12T14:57:23.332Z,11.01
2023-05-12T14:59:54.460Z,11.03
2023-05-12T15:02:21.733Z,11.12
2023-05-12T15:04:49.675Z,11.06
2023-05-12T15:07:17.085Z,10.99
2023-05-12T15:09:45.302Z,11.04
2023-05-12T15:12:12.606Z,10.98
2023-05-12T15:14:40.239Z,10.99
2023-05-12T15:17:08.070Z,11.01
2023-05-12T15:19:35.691Z,11.02
2023-05-12T15:22:03.049Z,11.30
2023-05-12T15:24:30.752Z,11.28
2023-05-12T15:26:58.044Z,11.40
2023-05-12T15:29:25.980Z,11.41
2023-05-12T15:31:53.404Z,11.41
2023-05-12T15:34:21.109Z,11.46
2023-05-12T15:36:49.023Z,11.48
2023-05-12T15:39:17.129Z,11.55
2023-05-12T15:41:44.473Z,11.50
2023-05-12T15:44:12.419Z,11.46
2023-05-12T15:46:39.813Z,11.55
2023-05-12T15:49:07.529Z,11.61
2023-05-12T15:51:36.620Z,11.60
2023-05-12T15:54:06.379Z,11.58
2023-05-12T15:56:34.539Z,11.56
2023-05-12T15:59:02.253Z,11.62
2023-05-12T16:01:29.647Z,11.60
2023-05-12T16:04:00.137Z,11.63
2023-05-12T16:06:27.702Z,11.81
2023-05-12T16:08:55.490Z,11.89
2023-05-12T16:11:22.768Z,11.97
2023-05-12T16:13:52.893Z,11.88
2023-05-12T16:16:20.447Z,12.05
2023-05-12T16:18:48.143Z,12.08
2023-05-12T16:21:15.743Z,12.04
2023-05-12T16:23:44.749Z,12.00
2023-05-12T16:26:12.178Z,11.99
2023-05-12T16:28:39.826Z,11.85
2023-05-12T16:31:07.193Z,11.73
2023-05-12T16:33:34.931Z,11.76
2023-05-12T16:36:02.354Z,11.93
2023-05-12T16:38:32.532Z,11.82
2023-05-12T16:41:00.796Z,11.88
2023-05-12T16:43:28.446Z,11.82
2023-05-12T16:46:03.279Z,11.80
2023-05-12T16:48:34.512Z,11.69
2023-05-12T16:51:07.783Z,11.62
2023-05-12T16:53:36.305Z,11.57
2023-05-12T16:56:03.825Z,11.58
2023-05-12T16:58:31.676Z,11.50
2023-05-12T17:01:00.237Z,11.55
2023-05-12T17:03:29.256Z,11.54
2023-05-12T17:05:56.851Z,11.66
2023-05-12T17:08:25.155Z,11.61
2023-05-12T17:10:52.496Z,11.54
2023-05-12T17:13:20.172Z,11.60
2023-05-12T17:15:47.738Z,11.58
2023-05-12T17:18:15.542Z,11.57
2023-05-12T17:20:43.318Z,11.43
2023-05-12T17:23:12.921Z,11.43
2023-05-12T17:25:40.304Z,11.43
2023-05-12T17:28:07.970Z,11.40
2023-05-12T17:30:35.307Z,11.33
2023-05-12T17:33:03.096Z,11.33
2023-05-12T17:35:30.520Z,11.24
2023-05-12T17:37:58.686Z,11.26
2023-05-12T17:40:26.663Z,11.24
2023-05-12T17:42:54.414Z,11.18
2023-05-12T17:45:21.976Z,11.11
2023-05-12T17:47:50.716Z,11.08
2023-05-12T17:50:18.437Z,11.06
2023-05-12T17:52:46.048Z,11.01
2023-05-12T17:55:13.320Z,10.84
2023-05-12T17:57:41.029Z,11.01
2023-05-12T18:00:13.005Z,10.90
2023-05-12T18:02:45.137Z,10.79
2023-05-12T18:05:12.702Z,11.00
2023-05-12T18:07:40.364Z,10.72
2023-05-12T18:10:11.635Z,10.79
2023-05-12T18:12:39.570Z,10.77
2023-05-12T18:15:08.313Z,10.65
2023-05-12T18:17:36.204Z,10.69
2023-05-12T18:20:07.668Z,10.71
2023-05-12T18:22:35.937Z,10.68
2023-05-12T18:25:03.271Z,10.64
2023-05-12T18:27:31.194Z,10.65
2023-05-12T18:29:58.523Z,10.58
2023-05-12T18:32:27.978Z,10.62
2023-05-12T18:34:55.274Z,10.54
2023-05-12T18:37:23.140Z,10.52
2023-05-12T18:39:50.598Z,10.47
2023-05-12T18:42:18.452Z,10.43
2023-05-12T18:44:46.048Z,10.42
2023-05-12T18:47:13.657Z,10.41
2023-05-12T18:49:40.926Z,10.36
2023-05-12T18:52:08.901Z,10.36
2023-05-12T18:54:37.985Z,10.35
2023-05-12T18:57:05.911Z,10.31
2023-05-12T18:59:33.265Z,10.18
2023-05-12T19:02:01.591Z,10.31
2023-05-12T19:04:29.359Z,10.33
2023-05-12T19:06:57.020Z,10.30
2023-05-12T19:09:24.254Z,10.24
2023-05-12T19:11:51.994Z,10.20
2023-05-12T19:14:20.453Z,10.22
2023-05-12T19:16:48.521Z,10.11
2023-05-12T19:19:16.089Z,10.08
2023-05-12T19:21:44.295Z,10.07
2023-05-12T19:24:11.922Z,10.02
2023-05-12T19:26:39.540Z,10.03
2023-05-12T19:29:07.369Z,9.96
2023-05-12T19:31:36.267Z,9.98
2023-05-12T19:34:04.016Z,9.94
2023-05-12T19:36:31.885Z,9.89
2023-05-12T19:39:02.045Z,9.86
2023-05-12T19:41:29.971Z,9.82
2023-05-12T19:43:57.375Z,9.74
2023-05-12T19:46:25.222Z,9.68
2023-05-12T19:48:54.840Z,9.72
2023-05-12T19:51:22.469Z,9.67
2023-05-12T19:53:49.766Z,9.66
2023-05-12T19:56:18.882Z,9.68
2023-05-12T19:58:46.268Z,9.58
2023-05-12T20:01:14.578Z,9.65
2023-05-12T20:03:44.237Z,9.62
2023-05-12T20:06:12.098Z,9.56
2023-05-12T20:08:39.375Z,9.54
2023-05-12T20:11:07.425Z,9.58
2023-05-12T20:13:35.003Z,9.51
2023-05-12T20:16:02.818Z,9.56
2023-05-12T20:18:30.101Z,9.54
2023-05-12T20:20:57.872Z,9.58
2023-05-12T20:23:25.384Z,9.59
2023-05-12T20:25:53.502Z,9.62
2023-05-12T20:28:22.618Z,9.65
2023-05-12T20:30:50.695Z,9.61
2023-05-12T20:33:18.021Z,9.68
2023-05-12T20:35:45.848Z,9.69
2023-05-12T20:38:13.629Z,9.69
2023-05-12T20:40:41.495Z,9.74
2023-05-12T20:43:08.949Z,9.79
2023-05-12T20:45:37.784Z,9.86
2023-05-12T20:48:05.333Z,10.04
2023-05-12T20:50:33.082Z,10.07
2023-05-12T20:53:00.379Z,10.05
2023-05-12T20:55:27.977Z,10.07
2023-05-12T20:57:55.491Z,10.08
2023-05-12T21:00:23.276Z,10.14
2023-05-12T21:02:52.502Z,10.12
2023-05-12T21:05:21.119Z,10.10
2023-05-12T21:07:48.983Z,10.09
2023-05-12T21:10:16.580Z,10.14
2023-05-12T21:12:44.442Z,10.12
2023-05-12T21:15:12.097Z,10.02
2023-05-12T21:17:40.214Z,9.92
2023-05-12T21:20:10.118Z,9.78
2023-05-12T21:22:38.601Z,9.89
2023-05-12T21:25:07.416Z,9.69
2023-05-12T21:27:39.733Z,9.85
2023-05-12T21:30:10.927Z,9.95
2023-05-12T21:32:38.594Z,10.01
2023-05-12T21:35:07.500Z,9.92
2023-05-12T21:37:34.907Z,10.05
2023-05-12T21:40:02.658Z,9.97
2023-05-12T21:42:36.035Z,9.87
2023-05-12T21:45:04.099Z,9.85
2023-05-12T21:47:31.533Z,9.83
2023-05-12T21:49:59.359Z,9.85
2023-05-12T21:52:26.805Z,9.80
2023-05-12T21:54:54.468Z,9.81
2023-05-12T21:57:21.792Z,9.83
2023-05-12T21:59:49.753Z,9.87
2023-05-12T22:02:17.281Z,9.83
2023-05-12T22:04:45.130Z,9.86
2023-05-12T22:07:12.698Z,9.71
2023-05-12T22:09:40.387Z,9.62
2023-05-12T22:12:08.871Z,9.61
2023-05-12T22:14:37.113Z,9.63
2023-05-12T22:17:04.650Z,9.44
2023-05-12T22:19:32.382Z,9.48
2023-05-12T22:22:00.071Z,9.44
2023-05-12T22:24:28.003Z,9.40
2023-05-12T22:26:55.389Z,9.48
2023-05-12T22:29:23.114Z,9.49
2023-05-12T22:31:50.877Z,9.55
2023-05-12T22:34:18.562Z,9.49
2023-05-12T22:36:46.061Z,9.40
2023-05-12T22:39:14.676Z,9.49
2023-05-12T22:41:42.208Z,9.53
2023-05-12T22:44:11.950Z,9.60
2023-05-12T22:46:39.322Z,9.57
2023-05-12T22:49:06.938Z,9.58
2023-05-12T22:51:34.466Z,9.59
2023-05-12T22:54:02.068Z,9.65
2023-05-12T22:56:29.348Z,9.72
2023-05-12T22:58:56.953Z,9.69
2023-05-12T23:01:24.703Z,9.69
2023-05-12T23:03:52.782Z,9.74
2023-05-12T23:06:20.126Z,9.78
2023-05-12T23:08:48.021Z,9.83
2023-05-12T23:11:16.269Z,9.80
2023-05-12T23:13:44.017Z,9.74
2023-05-12T23:16:11.338Z,9.73
2023-05-12T23:18:38.991Z,9.76
2023-05-12T23:21:06.536Z,9.73
2023-05-12T23:23:34.454Z,9.71
2023-05-12T23:26:01.672Z,9.70
2023-05-12T23:28:29.268Z,9.71
2023-05-12T23:30:56.528Z,9.62
2023-05-12T23:33:24.405Z,9.66
2023-05-12T23:35:51.726Z,9.66
2023-05-12T23:38:19.330Z,9.68
2023-05-12T23:40:46.610Z,9.66
2023-05-12T23:43:14.501Z,9.61
2023-05-12T23:45:42.228Z,9.57
2023-05-12T23:48:09.873Z,9.59
2023-05-12T23:50:37.168Z,9.49
2023-05-12T23:53:04.763Z,9.52
2023-05-12T23:55:32.157Z,9.57
2023-05-12T23:58:00.698Z,9.57
